createdAt,value
2022-12-17T00:00:51.734Z,36.05
2022-12-17T00:03:38.056Z,42.80
2022-12-17T00:06:23.600Z,39.35
2022-12-17T00:09:09.540Z,36.28
2022-12-17T00:11:56.164Z,45.03
2022-12-17T00:14:41.954Z,34.97
2022-12-17T00:17:29.929Z,42.70
2022-12-17T00:20:15.693Z,41.05
2022-12-17T00:23:01.649Z,37.22
2022-12-17T00:25:47.612Z,32.10
2022-12-17T00:28:39.187Z,33.25
2022-12-17T00:31:24.735Z,31.85
2022-12-17T00:34:10.172Z,42.13
2022-12-17T00:36:57.942Z,37.85
2022-12-17T00:39:43.690Z,32.38
2022-12-17T00:42:29.562Z,35.95
2022-12-17T00:45:14.791Z,34.80
2022-12-17T00:48:00.258Z,37.38
2022-12-17T00:50:46.209Z,46.90
2022-12-17T00:53:31.867Z,41.13
2022-12-17T00:56:17.779Z,44.38
2022-12-17T00:59:02.940Z,39.60
2022-12-17T01:01:48.896Z,40.83
2022-12-17T01:04:34.459Z,40.15
2022-12-17T01:07:20.205Z,42.85
2022-12-17T01:10:06.624Z,44.50
2022-12-17T01:12:52.897Z,39.20
2022-12-17T01:15:42.090Z,45.43
2022-12-17T01:18:28.229Z,42.90
2022-12-17T01:21:16.693Z,38.67
2022-12-17T01:24:02.433Z,41.00
2022-12-17T01:26:48.396Z,42.45
2022-12-17T01:29:34.294Z,43.65
2022-12-17T01:32:20.082Z,41.42
2022-12-17T01:35:05.986Z,36.83
2022-12-17T01:37:51.282Z,39.15
2022-12-17T01:40:37.016Z,33.13
2022-12-17T01:43:29.301Z,38.42
2022-12-17T01:46:15.336Z,41.45
2022-12-17T01:49:06.903Z,47.92
2022-12-17T01:51:53.621Z,44.70
2022-12-17T01:54:38.972Z,36.03
2022-12-17T01:57:26.692Z,40.15
2022-12-17T02:00:23.328Z,43.15
2022-12-17T02:03:09.407Z,43.20
2022-12-17T02:06:27.829Z,38.75
2022-12-17T02:09:13.613Z,44.70
2022-12-17T02:12:19.049Z,45.80
2022-12-17T02:15:12.101Z,39.75
2022-12-17T02:18:07.023Z,35.67
2022-12-17T02:21:03.177Z,41.22
2022-12-17T02:24:26.383Z,38.78
2022-12-17T02:27:15.312Z,42.22
2022-12-17T02:30:06.412Z,34.72
2022-12-17T02:32:53.975Z,32.47
2022-12-17T02:35:48.496Z,35.05
2022-12-17T02:38:53.434Z,41.95
2022-12-17T02:42:14.715Z,48.30
2022-12-17T02:45:01.211Z,42.05
2022-12-17T02:47:47.816Z,46.50
2022-12-17T02:50:33.285Z,51.83
2022-12-17T02:53:20.678Z,44.30
2022-12-17T02:56:06.113Z,55.50
2022-12-17T02:58:54.446Z,44.92
2022-12-17T03:01:40.283Z,50.05
2022-12-17T03:04:26.741Z,54.30
2022-12-17T03:07:12.613Z,60.95
2022-12-17T03:09:58.580Z,42.15
2022-12-17T03:12:44.369Z,46.33
2022-12-17T03:15:29.747Z,45.55
2022-12-17T03:18:15.104Z,43.40
2022-12-17T03:21:00.431Z,42.35
2022-12-17T03:23:46.280Z,48.28
2022-12-17T03:26:32.154Z,52.88
2022-12-17T03:29:17.920Z,40.15
2022-12-17T03:32:03.495Z,34.13
2022-12-17T03:34:49.341Z,38.38
2022-12-17T03:37:34.813Z,42.35
2022-12-17T03:40:20.669Z,40.42
2022-12-17T03:43:06.021Z,36.28
2022-12-17T03:45:52.176Z,39.42
2022-12-17T03:48:37.555Z,36.72
2022-12-17T03:51:22.950Z,35.97
2022-12-17T03:54:10.082Z,51.10
2022-12-17T03:56:55.975Z,42.95
2022-12-17T03:59:41.160Z,57.17
2022-12-17T04:02:27.236Z,42.10
2022-12-17T04:05:19.712Z,44.75
2022-12-17T04:08:06.172Z,49.28
2022-12-17T04:10:52.046Z,42.17
2022-12-17T04:13:40.992Z,55.33
2022-12-17T04:16:27.929Z,56.13
2022-12-17T04:19:13.670Z,54.75
2022-12-17T04:21:59.077Z,55.00
2022-12-17T04:24:44.890Z,47.50
2022-12-17T04:27:30.203Z,44.60
2022-12-17T04:30:16.251Z,50.60
2022-12-17T04:33:01.916Z,55.10
2022-12-17T04:35:47.751Z,58.88
2022-12-17T04:38:33.472Z,59.92
2022-12-17T04:41:19.258Z,51.28
2022-12-17T04:44:05.110Z,47.03
2022-12-17T04:46:50.910Z,32.85
2022-12-17T04:49:36.660Z,41.50
2022-12-17T04:52:22.158Z,29.42
2022-12-17T04:55:07.802Z,33.60
2022-12-17T04:57:53.774Z,32.03
2022-12-17T05:00:39.749Z,39.92
2022-12-17T05:03:29.603Z,45.90
2022-12-17T05:06:15.470Z,47.13
2022-12-17T05:09:01.177Z,44.30
2022-12-17T05:11:46.557Z,41.70
2022-12-17T05:14:32.399Z,52.63
2022-12-17T05:17:17.942Z,49.70
2022-12-17T05:20:03.825Z,45.03
2022-12-17T05:22:49.021Z,44.83
2022-12-17T05:25:35.054Z,51.75
2022-12-17T05:28:20.471Z,43.70
2022-12-17T05:31:13.354Z,45.08
2022-12-17T05:33:59.126Z,37.28
2022-12-17T05:36:44.959Z,54.80
2022-12-17T05:39:30.780Z,42.38
2022-12-17T05:42:16.264Z,48.65
2022-12-17T05:45:01.552Z,40.45
2022-12-17T05:47:47.620Z,40.15
2022-12-17T05:50:33.966Z,36.08
2022-12-17T05:53:25.088Z,35.08
2022-12-17T05:56:11.574Z,34.22
2022-12-17T05:58:58.088Z,34.30
2022-12-17T06:01:44.146Z,38.17
2022-12-17T06:04:30.751Z,37.70
2022-12-17T06:07:18.299Z,41.25
2022-12-17T06:10:20.925Z,41.10
2022-12-17T06:13:16.019Z,37.10
2022-12-17T06:16:02.202Z,40.85
2022-12-17T06:18:48.229Z,39.22
2022-12-17T06:21:34.073Z,39.40
2022-12-17T06:24:20.008Z,44.85
2022-12-17T06:27:06.061Z,30.95
2022-12-17T06:29:52.134Z,38.42
2022-12-17T06:32:38.220Z,37.10
2022-12-17T06:35:24.202Z,42.20
2022-12-17T06:38:19.322Z,49.30
2022-12-17T06:41:05.387Z,38.78
2022-12-17T06:43:51.393Z,39.35
2022-12-17T06:46:37.553Z,34.53
2022-12-17T06:49:23.642Z,41.53
2022-12-17T06:52:09.659Z,44.67
2022-12-17T06:54:55.540Z,43.92
2022-12-17T06:57:45.104Z,42.75
2022-12-17T07:00:33.600Z,47.33
2022-12-17T07:03:19.527Z,44.70
2022-12-17T07:06:07.374Z,41.75
2022-12-17T07:09:42.414Z,43.22
2022-12-17T07:12:28.314Z,34.55
2022-12-17T07:15:14.247Z,35.55
2022-12-17T07:18:00.220Z,38.63
2022-12-17T07:20:46.212Z,39.25
2022-12-17T07:24:12.442Z,42.28
2022-12-17T07:26:58.316Z,46.58
2022-12-17T07:29:44.143Z,40.55
2022-12-17T07:32:29.876Z,44.17
2022-12-17T07:35:15.794Z,37.20
2022-12-17T07:38:01.746Z,46.13
2022-12-17T07:40:47.514Z,42.85
2022-12-17T07:43:34.178Z,43.53
2022-12-17T07:46:20.489Z,40.53
2022-12-17T07:49:13.301Z,52.08
2022-12-17T07:51:59.132Z,43.42
2022-12-17T07:54:45.042Z,40.58
2022-12-17T07:57:30.877Z,39.42
2022-12-17T08:00:16.735Z,37.95
2022-12-17T08:03:02.934Z,41.58
2022-12-17T08:05:48.738Z,40.80
2022-12-17T08:08:34.762Z,43.42
2022-12-17T08:11:20.686Z,41.22
2022-12-17T08:14:06.732Z,47.03
2022-12-17T08:16:52.610Z,48.83
2022-12-17T08:19:38.460Z,65.18
2022-12-17T08:22:24.448Z,62.78
2022-12-17T08:25:10.241Z,58.35
2022-12-17T08:27:56.248Z,56.53
2022-12-17T08:30:43.405Z,43.42
2022-12-17T08:33:29.655Z,53.38
2022-12-17T08:36:16.408Z,37.97
2022-12-17T08:39:02.339Z,42.25
2022-12-17T08:41:54.067Z,41.63
2022-12-17T08:44:44.499Z,39.75
2022-12-17T08:47:30.266Z,38.85
2022-12-17T08:50:16.102Z,42.67
2022-12-17T08:53:02.124Z,38.85
2022-12-17T08:55:48.672Z,33.10
2022-12-17T08:58:34.587Z,34.35
2022-12-17T09:01:22.121Z,30.90
2022-12-17T09:04:08.042Z,33.13
2022-12-17T09:06:54.010Z,41.42
2022-12-17T09:09:40.013Z,36.63
2022-12-17T09:12:26.153Z,31.55
2022-12-17T09:15:12.024Z,41.28
2022-12-17T09:17:57.810Z,34.40
2022-12-17T09:24:00.710Z,31.75
2022-12-17T09:26:46.538Z,34.05
2022-12-17T09:29:32.451Z,32.15
2022-12-17T09:32:18.883Z,29.50
2022-12-17T09:35:20.899Z,34.85
2022-12-17T09:38:14.334Z,35.72
2022-12-17T09:41:02.627Z,36.45
2022-12-17T09:44:24.996Z,27.77
2022-12-17T09:50:25.209Z,28.85
2022-12-17T09:53:22.482Z,34.38
2022-12-17T09:56:12.164Z,35.72
2022-12-17T09:59:02.772Z,37.50
2022-12-17T10:01:53.198Z,28.52
2022-12-17T10:04:55.948Z,30.15
2022-12-17T10:07:42.840Z,41.03
2022-12-17T10:10:36.708Z,36.97
2022-12-17T10:13:31.227Z,41.13
2022-12-17T10:16:17.787Z,36.22
2022-12-17T10:19:06.057Z,37.28
2022-12-17T10:21:57.709Z,28.65
2022-12-17T10:25:02.617Z,34.10
2022-12-17T10:30:57.416Z,28.65
2022-12-17T10:33:45.976Z,32.33
2022-12-17T10:36:44.395Z,32.40
2022-12-17T10:39:39.976Z,26.15
2022-12-17T10:42:45.596Z,27.80
2022-12-17T10:45:37.871Z,26.35
2022-12-17T10:48:24.300Z,31.58
2022-12-17T10:51:10.218Z,38.92
2022-12-17T10:53:56.345Z,26.25
2022-12-17T10:56:51.508Z,32.33
2022-12-17T10:59:58.620Z,28.80
2022-12-17T11:02:50.008Z,33.75
2022-12-17T11:05:52.823Z,28.27
2022-12-17T11:08:42.024Z,32.40
2022-12-17T11:11:31.519Z,31.40
2022-12-17T11:14:18.453Z,29.75
2022-12-17T11:17:08.367Z,32.35
2022-12-17T11:19:57.314Z,24.40
2022-12-17T11:22:49.180Z,31.27
2022-12-17T11:26:01.376Z,30.42
2022-12-17T11:28:51.333Z,26.38
2022-12-17T11:31:37.359Z,28.00
2022-12-17T11:34:35.966Z,29.00
2022-12-17T11:37:22.142Z,30.92
2022-12-17T11:40:38.103Z,30.60
2022-12-17T11:43:33.137Z,29.77
2022-12-17T11:46:18.981Z,30.63
2022-12-17T11:49:08.227Z,30.40
2022-12-17T11:52:06.705Z,33.92
2022-12-17T11:54:55.529Z,34.13
2022-12-17T11:57:59.009Z,27.38
2022-12-17T12:00:44.978Z,35.70
2022-12-17T12:03:49.492Z,33.00
2022-12-17T12:06:40.048Z,33.35
2022-12-17T12:09:41.367Z,33.63
2022-12-17T12:12:36.019Z,30.15
2022-12-17T12:15:46.664Z,35.80
2022-12-17T12:18:32.942Z,30.73
2022-12-17T12:21:40.115Z,29.25
2022-12-17T12:24:47.408Z,32.55
2022-12-17T12:27:48.061Z,32.35
2022-12-17T12:30:52.118Z,33.22
2022-12-17T12:33:46.954Z,33.83
2022-12-17T12:36:40.918Z,41.83
2022-12-17T12:39:30.850Z,31.05
2022-12-17T12:42:25.900Z,25.40
2022-12-17T12:45:25.653Z,34.65
2022-12-17T12:48:46.481Z,29.42
2022-12-17T12:51:42.972Z,30.77
2022-12-17T12:54:47.196Z,37.65
2022-12-17T12:57:46.624Z,31.10
2022-12-17T13:00:47.309Z,35.55
2022-12-17T13:03:49.109Z,28.20
2022-12-17T13:06:41.947Z,34.75
2022-12-17T13:09:21.790Z,29.95
2022-12-17T13:12:03.988Z,37.40
2022-12-17T13:14:53.631Z,36.38
2022-12-17T13:17:26.762Z,32.50
2022-12-17T13:19:57.115Z,32.17
2022-12-17T13:22:30.347Z,31.67
2022-12-17T13:25:15.985Z,32.30
2022-12-17T13:27:44.972Z,30.45
2022-12-17T13:30:12.341Z,29.15
2022-12-17T13:32:45.383Z,28.27
2022-12-17T13:36:05.295Z,38.92
2022-12-17T13:39:06.547Z,28.95
2022-12-17T13:41:34.738Z,28.92
2022-12-17T13:44:24.275Z,26.45
2022-12-17T13:46:53.830Z,35.20
2022-12-17T13:49:42.072Z,27.90
2022-12-17T13:52:41.292Z,34.92
2022-12-17T13:55:27.313Z,30.88
2022-12-17T13:58:51.074Z,27.95
2022-12-17T14:01:18.628Z,31.23
2022-12-17T14:04:19.654Z,33.10
2022-12-17T14:06:50.026Z,25.83
2022-12-17T14:09:54.192Z,26.52
2022-12-17T14:12:25.753Z,29.45
2022-12-17T14:14:58.540Z,29.53
2022-12-17T14:17:28.021Z,25.75
2022-12-17T14:20:09.845Z,25.92
2022-12-17T14:22:47.774Z,28.42
2022-12-17T14:25:24.446Z,26.35
2022-12-17T14:27:57.676Z,28.80
2022-12-17T14:30:42.919Z,29.45
2022-12-17T14:33:27.896Z,25.35
2022-12-17T14:36:06.903Z,32.13
2022-12-17T14:38:38.994Z,29.80
2022-12-17T14:41:31.462Z,25.75
2022-12-17T14:44:00.216Z,33.65
2022-12-17T14:46:33.157Z,34.67
2022-12-17T14:49:03.951Z,27.95
2022-12-17T14:51:33.601Z,29.63
2022-12-17T14:54:18.708Z,29.40
2022-12-17T14:56:47.644Z,29.10
2022-12-17T14:59:45.142Z,30.20
2022-12-17T15:02:27.952Z,27.40
2022-12-17T15:05:02.133Z,26.80
2022-12-17T15:07:31.497Z,30.90
2022-12-17T15:09:58.925Z,27.07
2022-12-17T15:12:26.597Z,30.35
2022-12-17T15:14:53.968Z,36.65
2022-12-17T15:17:34.730Z,25.60
2022-12-17T15:20:09.913Z,28.55
2022-12-17T15:22:52.442Z,33.53
2022-12-17T15:25:20.356Z,26.58
2022-12-17T15:27:47.756Z,30.08
2022-12-17T15:30:16.725Z,29.80
2022-12-17T15:32:45.280Z,41.88
2022-12-17T15:35:14.170Z,37.58
2022-12-17T15:37:41.821Z,37.83
2022-12-17T15:40:11.876Z,38.20
2022-12-17T15:43:02.915Z,31.95
2022-12-17T15:45:33.293Z,32.80
2022-12-17T15:48:00.637Z,36.17
2022-12-17T15:50:28.618Z,26.85
2022-12-17T15:52:55.893Z,31.10
2022-12-17T15:55:23.153Z,34.72
2022-12-17T15:57:50.363Z,31.35
2022-12-17T16:00:18.355Z,33.80
2022-12-17T16:02:46.415Z,27.88
2022-12-17T16:05:13.800Z,38.13
2022-12-17T16:07:43.365Z,37.67
2022-12-17T16:10:11.749Z,42.17
2022-12-17T16:12:39.424Z,37.13
2022-12-17T16:15:08.374Z,36.85
2022-12-17T16:17:36.186Z,38.78
2022-12-17T16:20:04.634Z,35.72
2022-12-17T16:22:32.011Z,35.20
2022-12-17T16:24:59.125Z,33.53
2022-12-17T16:27:26.623Z,34.67
2022-12-17T16:29:54.230Z,38.65
2022-12-17T16:32:22.202Z,41.20
2022-12-17T16:34:50.308Z,42.40
2022-12-17T16:37:17.750Z,33.90
2022-12-17T16:39:45.135Z,36.50
2022-12-17T16:42:12.657Z,38.67
2022-12-17T16:44:39.937Z,36.58
2022-12-17T16:47:07.491Z,35.97
2022-12-17T16:49:35.323Z,33.08
2022-12-17T16:52:03.834Z,36.40
2022-12-17T16:54:32.743Z,38.38
2022-12-17T16:57:04.152Z,31.67
2022-12-17T16:59:33.919Z,31.17
2022-12-17T17:04:28.968Z,34.47
2022-12-17T17:06:57.194Z,35.40
2022-12-17T17:09:25.535Z,37.20
2022-12-17T17:11:55.287Z,26.85
2022-12-17T17:14:22.544Z,28.15
2022-12-17T17:16:49.830Z,32.20
2022-12-17T17:19:17.587Z,43.75
2022-12-17T17:21:53.948Z,43.65
2022-12-17T17:24:24.091Z,39.38
2022-12-17T17:29:19.532Z,44.42
2022-12-17T17:37:04.335Z,32.47
2022-12-17T17:39:33.409Z,31.83
2022-12-17T17:42:01.020Z,35.00
2022-12-17T17:44:29.015Z,31.73
2022-12-17T17:46:58.910Z,26.10
2022-12-17T17:49:28.682Z,25.52
2022-12-17T17:52:10.737Z,31.10
2022-12-17T17:59:11.810Z,29.83
2022-12-17T18:02:06.299Z,29.00
2022-12-17T18:07:31.405Z,35.08
2022-12-17T18:09:59.851Z,30.67
2022-12-17T18:12:45.987Z,35.05
2022-12-17T18:15:15.303Z,27.90
2022-12-17T18:17:49.636Z,33.67
2022-12-17T18:20:17.327Z,29.33
2022-12-17T18:22:46.164Z,31.50
2022-12-17T18:25:15.544Z,34.08
2022-12-17T18:27:43.693Z,37.20
2022-12-17T18:30:11.183Z,47.92
2022-12-17T18:32:38.138Z,56.50
2022-12-17T18:35:05.570Z,42.97
2022-12-17T18:37:33.050Z,41.00
2022-12-17T18:40:00.407Z,34.78
2022-12-17T18:42:45.692Z,34.88
2022-12-17T18:45:13.020Z,32.35
2022-12-17T18:47:39.885Z,29.73
2022-12-17T18:50:07.175Z,38.88
2022-12-17T18:52:34.064Z,30.13
2022-12-17T18:55:00.952Z,28.75
2022-12-17T18:57:27.830Z,29.70
2022-12-17T18:59:55.157Z,34.05
2022-12-17T19:02:22.219Z,28.92
2022-12-17T19:04:49.576Z,34.00
2022-12-17T19:07:16.457Z,34.33
2022-12-17T19:09:43.802Z,26.38
2022-12-17T19:12:10.722Z,26.27
2022-12-17T19:14:38.226Z,26.13
2022-12-17T19:17:06.066Z,31.80
2022-12-17T19:19:33.388Z,28.38
2022-12-17T19:22:00.447Z,36.08
2022-12-17T19:24:28.046Z,26.92
2022-12-17T19:26:55.285Z,26.08
2022-12-17T19:29:22.774Z,26.52
2022-12-17T19:31:51.507Z,21.92
2022-12-17T19:34:19.806Z,25.70
2022-12-17T19:36:47.599Z,23.75
2022-12-17T19:39:17.079Z,29.52
2022-12-17T19:41:44.849Z,28.67
2022-12-17T19:44:14.172Z,22.88
2022-12-17T19:46:41.866Z,28.08
2022-12-17T19:49:11.775Z,32.33
2022-12-17T19:51:40.477Z,27.70
2022-12-17T19:54:09.225Z,25.17
2022-12-17T19:56:37.121Z,29.60
2022-12-17T19:59:08.006Z,26.00
2022-12-17T20:01:41.660Z,28.63
2022-12-17T20:04:11.180Z,23.38
2022-12-17T20:06:38.611Z,24.33
2022-12-17T20:09:06.487Z,20.60
2022-12-17T20:11:34.589Z,20.52
2022-12-17T20:14:03.206Z,20.02
2022-12-17T20:16:32.751Z,16.63
2022-12-17T20:19:01.109Z,22.20
2022-12-17T20:21:29.037Z,26.92
2022-12-17T20:23:56.420Z,19.77
2022-12-17T20:26:24.387Z,25.05
2022-12-17T20:28:53.676Z,26.13
2022-12-17T20:31:21.364Z,21.15
2022-12-17T20:33:48.808Z,23.83
2022-12-17T20:36:19.764Z,28.27
2022-12-17T20:38:47.282Z,23.58
2022-12-17T20:41:22.990Z,35.13
2022-12-17T20:43:51.116Z,36.17
2022-12-17T20:46:19.705Z,28.45
2022-12-17T20:48:47.856Z,28.15
2022-12-17T20:51:24.014Z,28.23
2022-12-17T20:53:52.902Z,36.50
2022-12-17T20:56:26.616Z,30.83
2022-12-17T20:59:02.750Z,31.85
2022-12-17T21:01:31.995Z,22.48
2022-12-17T21:03:59.898Z,20.92
2022-12-17T21:06:34.734Z,23.83
2022-12-17T21:09:02.630Z,24.58
2022-12-17T21:11:30.640Z,24.80
2022-12-17T21:13:58.186Z,21.42
2022-12-17T21:16:29.073Z,22.15
2022-12-17T21:18:57.613Z,27.83
2022-12-17T21:21:28.033Z,24.70
2022-12-17T21:23:56.133Z,22.30
2022-12-17T21:26:26.476Z,26.33
2022-12-17T21:28:59.578Z,25.15
2022-12-17T21:31:30.329Z,31.50
2022-12-17T21:33:59.423Z,25.92
2022-12-17T21:36:28.349Z,29.35
2022-12-17T21:38:56.018Z,30.77
2022-12-17T21:41:26.645Z,27.75
2022-12-17T21:44:06.012Z,29.60
2022-12-17T21:46:33.424Z,31.42
2022-12-17T21:49:01.565Z,32.00
2022-12-17T21:51:29.760Z,30.33
2022-12-17T21:53:59.910Z,32.75
2022-12-17T21:56:27.560Z,29.50
2022-12-17T21:58:59.483Z,30.85
2022-12-17T22:01:29.574Z,30.75
2022-12-17T22:06:29.012Z,30.80
2022-12-17T22:09:03.623Z,27.02
2022-12-17T22:11:35.346Z,29.55
2022-12-17T22:14:07.287Z,28.08
2022-12-17T22:16:42.417Z,31.30
2022-12-17T22:19:11.663Z,26.60
2022-12-17T22:21:40.504Z,29.37
2022-12-17T22:24:11.741Z,34.17
2022-12-17T22:26:38.881Z,26.58
2022-12-17T22:29:06.203Z,26.85
2022-12-17T22:32:11.422Z,38.05
2022-12-17T22:35:17.130Z,26.13
2022-12-17T22:39:24.467Z,33.03
2022-12-17T22:44:34.587Z,33.17
2022-12-17T22:44:45.554Z,29.55
2022-12-17T22:46:11.173Z,28.95
2022-12-17T22:48:38.089Z,28.92
2022-12-17T22:51:21.872Z,31.73
2022-12-17T22:53:55.950Z,33.25
2022-12-17T22:56:39.888Z,23.27
2022-12-17T22:59:16.559Z,26.60
2022-12-17T23:01:43.984Z,32.53
2022-12-17T23:04:13.914Z,26.23
2022-12-17T23:09:08.431Z,26.90
2022-12-17T23:11:35.363Z,33.05
2022-12-17T23:14:02.791Z,34.22
2022-12-17T23:16:30.732Z,38.38
2022-12-17T23:19:01.247Z,27.90
2022-12-17T23:21:29.282Z,25.80
2022-12-17T23:23:57.608Z,31.98
2022-12-17T23:26:30.894Z,31.73
2022-12-17T23:29:00.143Z,29.17
2022-12-17T23:31:30.983Z,33.47
2022-12-17T23:33:58.433Z,33.10
2022-12-17T23:36:26.642Z,32.28
2022-12-17T23:38:56.132Z,31.85
2022-12-17T23:41:30.968Z,31.60
2022-12-17T23:43:59.126Z,41.70
2022-12-17T23:46:28.638Z,31.67
2022-12-17T23:48:56.340Z,37.25
2022-12-17T23:51:24.722Z,30.95
2022-12-17T23:53:51.717Z,31.77
2022-12-17T23:56:26.424Z,29.38
2022-12-17T23:58:56.043Z,28.23
